createdAt,value
2019-01-12T00:00:13.393Z,3.39
2019-01-12T00:01:13.382Z,3.31
2019-01-12T00:02:13.317Z,3.31
2019-01-12T00:03:13.311Z,3.31
2019-01-12T00:04:13.307Z,3.30
2019-01-12T00:05:13.329Z,3.27
2019-01-12T00:06:13.341Z,3.36
2019-01-12T00:07:13.279Z,3.33
2019-01-12T00:08:13.267Z,3.36
2019-01-12T00:09:13.260Z,3.36
2019-01-12T00:10:13.261Z,3.31
2019-01-12T00:11:13.246Z,3.40
2019-01-12T00:12:13.234Z,3.42
2019-01-12T00:13:13.269Z,3.46
2019-01-12T00:14:13.248Z,3.44
2019-01-12T00:15:13.267Z,3.33
2019-01-12T00:16:13.199Z,3.42
2019-01-12T00:17:13.192Z,3.42
2019-01-12T00:18:13.183Z,3.49
2019-01-12T00:19:13.200Z,3.40
2019-01-12T00:20:13.167Z,3.43
2019-01-12T00:21:13.173Z,3.43
2019-01-12T00:22:13.151Z,3.47
2019-01-12T00:23:13.148Z,3.47
2019-01-12T00:24:13.164Z,3.44
2019-01-12T00:25:13.128Z,3.42
2019-01-12T00:26:13.121Z,3.43
2019-01-12T00:27:13.117Z,3.49
2019-01-12T00:28:13.114Z,3.46
2019-01-12T00:29:13.094Z,3.40
2019-01-12T00:30:13.148Z,3.49
2019-01-12T00:31:13.082Z,3.39
2019-01-12T00:32:13.069Z,3.47
2019-01-12T00:33:13.089Z,3.46
2019-01-12T00:34:13.053Z,3.46
2019-01-12T00:35:13.074Z,3.52
2019-01-12T00:36:13.037Z,3.44
2019-01-12T00:37:13.039Z,3.54
2019-01-12T00:38:13.046Z,3.53
2019-01-12T00:39:13.042Z,3.46
2019-01-12T00:40:13.042Z,3.42
2019-01-12T00:41:13.806Z,3.43
2019-01-12T00:42:13.038Z,3.39
2019-01-12T00:43:13.016Z,3.42
2019-01-12T00:44:12.975Z,3.40
2019-01-12T00:45:12.971Z,3.42
2019-01-12T00:46:12.955Z,3.31
2019-01-12T00:47:12.948Z,3.30
2019-01-12T00:48:12.939Z,3.23
2019-01-12T00:49:12.928Z,3.25
2019-01-12T00:50:12.924Z,3.23
2019-01-12T00:51:12.918Z,3.21
2019-01-12T00:52:12.907Z,3.39
2019-01-12T00:53:12.917Z,3.46
2019-01-12T00:54:12.915Z,3.40
2019-01-12T00:55:12.908Z,3.42
2019-01-12T00:56:12.874Z,3.40
2019-01-12T00:57:12.880Z,3.53
2019-01-12T00:58:12.876Z,3.57
2019-01-12T00:59:12.857Z,3.58
2019-01-12T01:00:12.873Z,3.54
2019-01-12T01:01:12.872Z,3.58
2019-01-12T01:02:12.825Z,3.58
2019-01-12T01:03:12.814Z,3.61
2019-01-12T01:04:12.814Z,3.54
2019-01-12T01:05:12.833Z,3.57
2019-01-12T01:06:12.814Z,3.62
2019-01-12T01:07:12.812Z,3.54
2019-01-12T01:08:12.782Z,3.62
2019-01-12T01:09:12.771Z,3.62
2019-01-12T01:10:12.789Z,3.62
2019-01-12T01:11:12.762Z,3.58
2019-01-12T01:12:12.777Z,3.64
2019-01-12T01:13:12.735Z,3.60
2019-01-12T01:14:12.728Z,3.67
2019-01-12T01:15:12.720Z,3.71
2019-01-12T01:16:12.713Z,3.71
2019-01-12T01:17:12.701Z,3.75
2019-01-12T01:18:12.716Z,3.68
2019-01-12T01:19:12.686Z,3.68
2019-01-12T01:20:12.696Z,3.54
2019-01-12T01:21:12.696Z,3.64
2019-01-12T01:22:12.689Z,3.61
2019-01-12T01:23:12.677Z,3.64
2019-01-12T01:24:12.647Z,3.54
2019-01-12T01:25:12.643Z,3.57
2019-01-12T01:26:12.632Z,3.57
2019-01-12T01:27:12.637Z,3.65
2019-01-12T01:28:12.657Z,3.60
2019-01-12T01:29:12.612Z,3.54
2019-01-12T01:30:12.603Z,3.64
2019-01-12T01:31:12.600Z,3.67
2019-01-12T01:32:12.591Z,3.60
2019-01-12T01:33:12.582Z,3.64
2019-01-12T01:34:12.572Z,3.54
2019-01-12T01:35:12.625Z,3.60
2019-01-12T01:36:12.553Z,3.62
2019-01-12T01:37:12.550Z,3.54
2019-01-12T01:38:12.542Z,3.44
2019-01-12T01:39:12.527Z,3.42
2019-01-12T01:40:12.522Z,3.43
2019-01-12T01:41:12.544Z,3.54
2019-01-12T01:42:12.573Z,3.52
2019-01-12T01:43:12.497Z,3.58
2019-01-12T01:44:12.493Z,3.46
2019-01-12T01:45:12.482Z,3.53
2019-01-12T01:46:12.471Z,3.47
2019-01-12T01:47:12.465Z,3.57
2019-01-12T01:48:12.459Z,3.60
2019-01-12T01:49:12.450Z,3.53
2019-01-12T01:50:12.446Z,3.54
2019-01-12T01:51:12.440Z,3.61
2019-01-12T01:52:12.426Z,3.65
2019-01-12T01:53:12.423Z,3.58
2019-01-12T01:54:12.410Z,3.40
2019-01-12T01:55:12.454Z,3.40
2019-01-12T01:56:12.394Z,3.50
2019-01-12T01:57:12.390Z,3.50
2019-01-12T01:58:12.390Z,3.61
2019-01-12T01:59:12.372Z,3.62
2019-01-12T02:00:12.365Z,3.54
2019-01-12T02:01:12.354Z,3.53
2019-01-12T02:02:12.401Z,3.52
2019-01-12T02:03:12.336Z,3.61
2019-01-12T02:04:12.327Z,3.61
2019-01-12T02:05:12.343Z,3.53
2019-01-12T02:06:12.317Z,3.61
2019-01-12T02:07:12.303Z,3.54
2019-01-12T02:08:12.299Z,3.57
2019-01-12T02:09:12.290Z,3.53
2019-01-12T02:10:12.283Z,3.61
2019-01-12T02:11:12.270Z,3.57
2019-01-12T02:12:12.265Z,3.46
2019-01-12T02:13:12.275Z,3.42
2019-01-12T02:14:14.215Z,3.44
2019-01-12T02:15:12.240Z,3.60
2019-01-12T02:16:12.233Z,3.54
2019-01-12T06:54:48.018Z,3.54
2019-01-12T06:55:48.998Z,3.64
2019-01-12T06:57:41.245Z,3.61
2019-01-12T06:58:41.324Z,3.60
2019-01-12T07:00:42.393Z,3.64
2019-01-12T07:37:40.687Z,3.72
2019-01-12T07:38:41.199Z,3.72
2019-01-12T07:41:11.495Z,3.71
2019-01-12T07:42:11.604Z,3.72
2019-01-12T07:48:08.512Z,3.71
2019-01-12T07:49:13.552Z,3.71
2019-01-12T07:51:00.598Z,3.62
2019-01-12T07:51:59.852Z,3.67
2019-01-12T07:56:51.597Z,3.67
2019-01-12T07:57:51.638Z,3.65
2019-01-12T08:24:03.174Z,3.92
2019-01-12T08:25:02.348Z,3.94
2019-01-12T08:26:56.725Z,3.94
2019-01-12T08:27:55.148Z,3.96
2019-01-12T08:51:00.943Z,3.98
2019-01-12T08:51:45.228Z,3.98
2019-01-12T08:55:14.689Z,4.00
2019-01-12T08:56:09.169Z,4.00
2019-01-12T08:59:38.831Z,4.12
2019-01-12T09:02:34.339Z,4.14
2019-01-12T09:03:31.124Z,4.12
2019-01-12T09:04:30.694Z,4.12
2019-01-12T09:05:31.102Z,4.06
2019-01-12T09:06:30.168Z,4.18
2019-01-12T09:07:31.560Z,4.15
2019-01-12T09:08:41.628Z,4.19
2019-01-12T09:09:41.118Z,4.24
2019-01-12T09:11:23.645Z,4.26
2019-01-12T09:12:24.035Z,4.24
2019-01-12T09:14:17.502Z,4.25
2019-01-12T09:15:17.613Z,4.26
2019-01-12T09:17:10.449Z,4.22
2019-01-12T09:18:10.339Z,4.19
2019-01-12T09:20:11.567Z,4.21
2019-01-12T09:21:03.381Z,4.22
2019-01-12T09:22:03.180Z,4.19
2019-01-12T09:23:03.224Z,4.19
2019-01-12T09:24:03.297Z,4.21
2019-01-12T09:25:03.050Z,4.14
2019-01-12T09:26:03.001Z,4.14
2019-01-12T09:27:02.986Z,4.16
2019-01-12T09:28:03.009Z,4.14
2019-01-12T09:30:17.398Z,4.16
2019-01-12T09:31:10.989Z,4.24
2019-01-12T09:32:11.325Z,4.15
2019-01-12T09:33:10.623Z,4.16
2019-01-12T09:34:10.563Z,4.16
2019-01-12T09:35:10.836Z,4.22
2019-01-12T09:36:31.462Z,4.19
2019-01-12T09:37:10.371Z,4.21
2019-01-12T09:38:10.361Z,4.26
2019-01-12T09:39:10.365Z,4.19
2019-01-12T09:40:10.353Z,4.21
2019-01-12T09:41:10.339Z,4.15
2019-01-12T09:43:42.930Z,4.18
2019-01-12T09:44:43.931Z,4.07
2019-01-12T09:46:37.561Z,4.15
2019-01-12T09:47:38.158Z,4.08
2019-01-12T09:49:31.487Z,3.97
2019-01-12T09:50:30.668Z,3.98
2019-01-12T09:52:24.392Z,4.00
2019-01-12T09:53:24.160Z,3.94
2019-01-12T09:55:17.548Z,3.94
2019-01-12T09:56:17.565Z,4.01
2019-01-12T09:58:10.365Z,3.97
2019-01-12T09:59:12.639Z,3.94
2019-01-12T10:01:03.856Z,3.94
2019-01-12T10:02:03.798Z,3.94
2019-01-12T10:03:57.864Z,3.94
2019-01-12T10:04:57.655Z,4.00
2019-01-12T10:06:51.133Z,4.00
2019-01-12T10:07:51.147Z,4.00
2019-01-12T10:09:43.924Z,3.98
2019-01-12T10:10:44.056Z,3.98
2019-01-12T10:12:37.823Z,4.01
2019-01-12T10:13:38.423Z,3.98
2019-01-12T10:14:37.774Z,4.12
2019-01-12T10:15:37.708Z,4.04
2019-01-12T10:16:37.645Z,4.04
2019-01-12T10:17:37.583Z,3.97
2019-01-12T10:18:37.561Z,4.06
2019-01-12T10:19:37.555Z,4.10
2019-01-12T10:20:37.545Z,4.03
2019-01-12T10:21:37.520Z,4.07
2019-01-12T10:22:37.603Z,4.12
2019-01-12T10:23:37.505Z,4.12
2019-01-12T10:24:37.535Z,4.15
2019-01-12T10:25:37.494Z,4.12
2019-01-12T10:26:37.497Z,4.16
2019-01-12T10:27:37.561Z,4.12
2019-01-12T10:28:37.479Z,4.07
2019-01-12T10:36:12.684Z,4.18
2019-01-12T10:37:12.503Z,4.14
2019-01-12T10:39:05.857Z,4.08
2019-01-12T10:40:05.925Z,4.10
2019-01-12T10:41:59.864Z,4.10
2019-01-12T10:43:00.367Z,4.15
2019-01-12T10:44:52.217Z,4.12
2019-01-12T10:45:52.188Z,4.15
2019-01-12T10:46:54.720Z,4.18
2019-01-12T10:47:51.638Z,4.18
2019-01-12T10:48:51.646Z,4.24
2019-01-12T10:49:51.390Z,4.22
2019-01-12T10:50:51.618Z,4.16
2019-01-12T10:51:51.181Z,4.16
2019-01-12T10:52:51.153Z,4.19
2019-01-12T10:53:51.173Z,4.19
2019-01-12T10:54:51.167Z,4.12
2019-01-12T10:55:51.135Z,4.06
2019-01-12T10:56:51.132Z,4.06
2019-01-12T10:57:51.116Z,4.10
2019-01-12T10:58:51.197Z,4.08
2019-01-12T10:59:51.098Z,4.12
2019-01-12T11:00:51.133Z,4.22
2019-01-12T11:01:51.088Z,4.19
2019-01-12T11:02:51.094Z,4.15
2019-01-12T11:03:51.089Z,4.08
2019-01-12T11:04:51.062Z,4.10
2019-01-12T11:05:51.060Z,4.19
2019-01-12T11:06:51.087Z,4.15
2019-01-12T11:07:51.049Z,4.18
2019-01-12T11:08:51.040Z,4.16
2019-01-12T11:09:51.033Z,4.16
2019-01-12T11:10:51.028Z,4.16
2019-01-12T11:11:51.015Z,4.19
2019-01-12T11:12:51.006Z,4.21
2019-01-12T11:13:51.018Z,4.22
2019-01-12T11:14:50.990Z,4.21
2019-01-12T11:15:50.986Z,4.24
2019-01-12T11:16:51.005Z,4.34
2019-01-12T11:17:50.973Z,4.26
2019-01-12T11:18:50.969Z,4.28
2019-01-12T11:19:50.991Z,4.34
2019-01-12T11:20:50.975Z,4.37
2019-01-12T11:21:50.975Z,4.33
2019-01-12T11:22:50.941Z,4.47
2019-01-12T11:23:50.931Z,4.51
2019-01-12T11:24:50.922Z,4.47
2019-01-12T11:25:50.928Z,4.42
2019-01-12T11:26:50.934Z,4.36
2019-01-12T11:27:50.901Z,4.36
2019-01-12T11:28:50.894Z,4.42
2019-01-12T11:29:50.885Z,4.42
2019-01-12T11:30:52.796Z,4.43
2019-01-12T11:31:52.794Z,4.34
2019-01-12T11:32:50.901Z,4.28
2019-01-12T11:33:52.826Z,4.29
2019-01-12T11:36:49.320Z,4.29
2019-01-12T11:39:21.438Z,4.29
2019-01-12T11:40:21.927Z,4.28
2019-01-12T11:42:14.588Z,4.34
2019-01-12T11:43:14.189Z,4.33
2019-01-12T11:45:10.688Z,4.28
2019-01-12T11:46:07.640Z,4.33
2019-01-12T11:48:00.593Z,4.25
2019-01-12T11:49:01.020Z,4.26
2019-01-12T11:50:53.232Z,4.25
2019-01-12T11:51:53.258Z,4.24
2019-01-12T11:53:47.747Z,4.26
2019-01-12T11:54:46.713Z,4.19
2019-01-12T11:56:40.049Z,4.25
2019-01-12T11:57:39.975Z,4.28
2019-01-12T11:58:39.961Z,4.25
2019-01-12T11:59:41.272Z,4.29
2019-01-12T12:00:39.914Z,4.33
2019-01-12T12:01:39.893Z,4.29
2019-01-12T12:02:39.867Z,4.28
2019-01-12T12:03:39.862Z,4.39
2019-01-12T12:04:39.861Z,4.37
2019-01-12T12:05:39.874Z,4.42
2019-01-12T12:06:39.837Z,4.44
2019-01-12T12:07:39.842Z,4.51
2019-01-12T12:08:39.826Z,4.43
2019-01-12T12:09:39.817Z,4.39
2019-01-12T12:10:39.804Z,4.42
2019-01-12T12:11:39.799Z,4.42
2019-01-12T12:12:39.799Z,4.46
2019-01-12T12:13:39.789Z,4.50
2019-01-12T12:14:39.787Z,4.46
2019-01-12T12:15:39.806Z,4.47
2019-01-12T12:16:39.768Z,4.69
2019-01-12T12:17:39.814Z,4.67
2019-01-12T12:18:39.752Z,4.83
2019-01-12T12:19:39.744Z,4.77
2019-01-12T12:20:39.744Z,4.76
2019-01-12T12:21:39.738Z,4.72
2019-01-12T12:22:39.728Z,4.79
2019-01-12T12:23:39.718Z,4.64
2019-01-12T12:24:39.751Z,4.64
2019-01-12T12:25:39.703Z,4.54
2019-01-12T12:26:39.694Z,4.42
2019-01-12T12:27:39.700Z,4.51
2019-01-12T12:28:39.681Z,4.47
2019-01-12T12:29:39.706Z,4.36
2019-01-12T12:30:39.668Z,4.25
2019-01-12T12:31:39.662Z,4.33
2019-01-12T12:32:39.662Z,4.26
2019-01-12T12:33:39.652Z,4.32
2019-01-12T12:34:39.644Z,4.26
2019-01-12T12:35:39.638Z,4.22
2019-01-12T12:36:39.633Z,4.22
2019-01-12T12:37:39.623Z,4.21
2019-01-12T12:38:39.611Z,4.14
2019-01-12T12:39:39.632Z,4.21
2019-01-12T12:40:39.600Z,4.16
2019-01-12T12:41:39.596Z,4.07
2019-01-12T12:42:39.588Z,4.12
2019-01-12T12:43:39.584Z,4.07
2019-01-12T12:44:39.572Z,4.15
2019-01-12T12:45:39.565Z,4.21
2019-01-12T12:46:39.555Z,4.15
2019-01-12T12:47:39.553Z,4.15
2019-01-12T12:48:39.546Z,4.14
2019-01-12T12:49:39.537Z,4.14
2019-01-12T12:50:39.528Z,4.12
2019-01-12T12:51:39.536Z,4.14
2019-01-12T12:52:39.516Z,4.14
2019-01-12T12:53:39.513Z,4.06
2019-01-12T12:54:39.542Z,4.06
2019-01-12T12:55:39.570Z,3.94
2019-01-12T12:56:39.489Z,3.88
2019-01-12T12:57:39.481Z,3.96
2019-01-12T12:58:39.474Z,3.97
2019-01-12T12:59:39.467Z,3.94
2019-01-12T13:00:39.462Z,3.89
2019-01-12T13:01:39.453Z,3.89
2019-01-12T13:02:39.468Z,3.92
2019-01-12T13:03:39.435Z,3.92
2019-01-12T13:04:39.428Z,3.85
2019-01-12T13:05:39.425Z,3.80
2019-01-12T13:06:39.415Z,3.83
2019-01-12T13:07:39.407Z,3.88
2019-01-12T13:08:39.400Z,3.80
2019-01-12T13:09:39.391Z,3.80
2019-01-12T13:10:39.441Z,3.71
2019-01-12T13:11:39.462Z,3.72
2019-01-12T13:12:39.532Z,3.80
2019-01-12T13:13:39.395Z,3.75
2019-01-12T13:14:39.374Z,3.78
2019-01-12T13:15:39.404Z,3.71
2019-01-12T13:16:39.394Z,3.71
2019-01-12T13:17:40.047Z,3.71
2019-01-12T13:18:39.347Z,3.67
2019-01-12T13:19:39.356Z,3.72
2019-01-12T13:20:39.306Z,3.72
2019-01-12T13:21:39.322Z,3.70
2019-01-12T13:22:39.346Z,3.68
2019-01-12T13:23:39.284Z,3.68
2019-01-12T13:24:39.278Z,3.65
2019-01-12T13:25:39.268Z,3.71
2019-01-12T13:26:39.261Z,3.68
2019-01-12T13:27:40.036Z,3.65
2019-01-12T13:28:39.249Z,3.65
2019-01-12T13:29:39.238Z,3.70
2019-01-12T13:30:39.229Z,3.78
2019-01-12T13:31:39.222Z,3.68
2019-01-12T13:32:39.215Z,3.68
2019-01-12T13:33:39.215Z,3.71
2019-01-12T13:34:40.646Z,3.71
2019-01-12T13:35:39.190Z,3.72
2019-01-12T13:36:39.208Z,3.70
2019-01-12T13:37:39.181Z,3.60
2019-01-12T13:38:39.169Z,3.67
2019-01-12T13:39:39.159Z,3.70
2019-01-12T13:40:39.157Z,3.70
2019-01-12T13:41:39.142Z,3.67
2019-01-12T13:42:39.139Z,3.67
2019-01-12T13:43:39.131Z,3.71
2019-01-12T13:44:39.126Z,3.64
2019-01-12T13:45:39.116Z,3.62
2019-01-12T13:46:39.103Z,3.60
2019-01-12T13:47:39.098Z,3.62
2019-01-12T13:48:39.089Z,3.64
2019-01-12T13:49:39.113Z,3.57
2019-01-12T13:50:39.102Z,3.65
2019-01-12T13:51:39.067Z,3.57
2019-01-12T13:52:46.521Z,3.58
2019-01-12T13:54:32.912Z,3.65
2019-01-12T13:55:32.860Z,3.57
2019-01-12T13:56:32.695Z,3.67
2019-01-12T13:57:33.243Z,3.54
2019-01-12T13:58:32.428Z,3.65
2019-01-12T13:59:32.347Z,3.57
2019-01-12T14:00:32.337Z,3.57
2019-01-12T14:01:32.330Z,3.57
2019-01-12T14:02:32.320Z,3.68
2019-01-12T14:03:32.314Z,3.54
2019-01-12T14:04:32.309Z,3.50
2019-01-12T14:05:32.296Z,3.61
2019-01-12T14:06:32.289Z,3.57
2019-01-12T14:07:32.280Z,3.61
2019-01-12T14:08:32.272Z,3.60
2019-01-12T14:09:32.286Z,3.54
2019-01-12T14:10:32.289Z,3.61
2019-01-12T14:11:32.248Z,3.54
2019-01-12T14:12:32.239Z,3.57
2019-01-12T14:13:32.234Z,3.58
2019-01-12T14:14:32.255Z,3.54
2019-01-12T14:15:32.215Z,3.58
2019-01-12T14:16:32.208Z,3.62
2019-01-12T14:17:32.201Z,3.65
2019-01-12T14:18:32.191Z,3.60
2019-01-12T14:19:32.212Z,3.58
2019-01-12T14:20:32.177Z,3.60
2019-01-12T14:21:32.179Z,3.65
2019-01-12T14:22:32.157Z,3.61
2019-01-12T14:23:32.149Z,3.64
2019-01-12T14:24:32.140Z,3.65
2019-01-12T14:25:32.133Z,3.60
2019-01-12T14:26:32.126Z,3.60
2019-01-12T14:27:32.118Z,3.57
2019-01-12T14:28:32.109Z,3.53
2019-01-12T14:29:32.102Z,3.60
2019-01-12T14:30:32.150Z,3.58
2019-01-12T14:31:32.091Z,3.54
2019-01-12T14:32:32.079Z,3.44
2019-01-12T14:33:32.074Z,3.47
2019-01-12T14:34:32.059Z,3.43
2019-01-12T14:35:32.048Z,3.46
2019-01-12T14:36:32.043Z,3.46
2019-01-12T14:37:32.038Z,3.46
2019-01-12T14:38:32.031Z,3.43
2019-01-12T14:39:32.018Z,3.46
2019-01-12T14:40:32.009Z,3.50
2019-01-12T14:41:32.009Z,3.42
2019-01-12T14:42:31.994Z,3.39
2019-01-12T14:43:31.989Z,3.44
2019-01-12T14:44:31.978Z,3.40
2019-01-12T14:45:31.968Z,3.36
2019-01-12T14:46:31.963Z,3.31
2019-01-12T14:47:31.955Z,3.46
2019-01-12T14:48:31.945Z,3.42
2019-01-12T14:49:31.937Z,3.42
2019-01-12T14:50:31.935Z,3.40
2019-01-12T14:51:31.919Z,3.40
2019-01-12T14:52:31.916Z,3.44
2019-01-12T14:53:31.902Z,3.43
2019-01-12T14:54:31.894Z,3.43
2019-01-12T14:55:31.889Z,3.42
2019-01-12T14:56:31.879Z,3.36
2019-01-12T14:57:31.869Z,3.40
2019-01-12T14:58:31.895Z,3.40
2019-01-12T14:59:31.862Z,3.47
2019-01-12T15:00:31.905Z,3.42
2019-01-12T15:01:31.833Z,3.40
2019-01-12T15:02:31.852Z,3.43
2019-01-12T15:03:31.830Z,3.46
2019-01-12T15:04:31.831Z,3.39
2019-01-12T15:05:31.815Z,3.36
2019-01-12T15:06:31.846Z,3.36
2019-01-12T15:07:31.791Z,3.31
2019-01-12T15:08:31.773Z,3.33
2019-01-12T15:09:31.768Z,3.27
2019-01-12T15:10:31.763Z,3.33
2019-01-12T15:11:31.752Z,3.30
2019-01-12T15:12:31.743Z,3.40
2019-01-12T15:13:31.735Z,3.33
2019-01-12T15:14:31.727Z,3.31
2019-01-12T15:15:31.717Z,3.34
2019-01-12T15:16:31.715Z,3.28
2019-01-12T15:17:31.698Z,3.33
2019-01-12T15:18:31.700Z,3.33
2019-01-12T15:19:31.709Z,3.33
2019-01-12T15:20:31.675Z,3.40
2019-01-12T15:21:31.668Z,3.40
2019-01-12T15:22:31.657Z,3.39
2019-01-12T15:23:31.649Z,3.33
2019-01-12T15:24:31.649Z,3.30
2019-01-12T15:25:31.667Z,3.30
2019-01-12T15:26:31.625Z,3.31
2019-01-12T15:27:33.529Z,3.25
2019-01-12T15:28:31.605Z,3.39
2019-01-12T15:29:31.597Z,3.36
2019-01-12T15:30:31.620Z,3.23
2019-01-12T15:31:31.579Z,3.27
2019-01-12T15:32:31.572Z,3.25
2019-01-12T15:33:31.563Z,3.25
2019-01-12T15:34:31.564Z,3.24
2019-01-12T15:35:31.544Z,3.42
2019-01-12T15:36:31.542Z,3.24
2019-01-12T15:37:31.527Z,3.21
2019-01-12T15:38:31.518Z,3.24
2019-01-12T15:39:31.509Z,3.27
2019-01-12T15:40:31.504Z,3.31
2019-01-12T15:41:38.833Z,3.27
2019-01-12T15:43:24.984Z,3.27
2019-01-12T15:44:24.864Z,3.24
2019-01-12T15:46:18.306Z,3.27
2019-01-12T15:47:18.219Z,3.25
2019-01-12T15:49:11.715Z,3.23
2019-01-12T15:51:45.574Z,3.27
2019-01-12T15:52:45.548Z,3.25
2019-01-12T15:54:39.112Z,3.25
2019-01-12T15:55:39.528Z,3.23
2019-01-12T15:56:38.966Z,3.20
2019-01-12T15:57:38.909Z,3.23
2019-01-12T15:58:52.537Z,3.24
2019-01-12T16:01:29.797Z,3.30
2019-01-12T16:02:19.422Z,3.24
2019-01-12T16:05:30.681Z,3.21
2019-01-12T16:06:31.029Z,3.23
2019-01-12T16:15:18.846Z,3.21
2019-01-12T16:16:19.936Z,3.25
2019-01-12T16:17:18.875Z,3.31
2019-01-12T16:18:20.380Z,3.36
2019-01-12T16:19:19.391Z,3.31
2019-01-12T16:40:02.728Z,3.46
2019-01-12T16:40:55.239Z,3.46
2019-01-12T16:57:06.322Z,3.40
2019-01-12T16:58:05.542Z,3.43
2019-01-12T17:00:00.092Z,3.46
2019-01-12T17:00:59.486Z,3.40
2019-01-12T17:02:58.088Z,3.43
2019-01-12T17:03:55.182Z,3.46
2019-01-12T17:04:54.886Z,3.50
2019-01-12T17:05:55.134Z,3.36
2019-01-12T17:06:55.106Z,3.30
2019-01-12T17:07:54.947Z,3.40
2019-01-12T17:08:54.907Z,3.47
2019-01-12T17:09:54.806Z,3.42
2019-01-12T17:10:56.852Z,3.44
2019-01-12T17:11:54.620Z,3.46
2019-01-12T17:12:54.613Z,3.46
2019-01-12T17:13:54.678Z,3.46
2019-01-12T17:14:54.600Z,3.46
2019-01-12T17:16:49.607Z,3.53
2019-01-12T17:17:49.557Z,3.53
2019-01-12T17:19:42.294Z,3.44
2019-01-12T17:20:42.349Z,3.42
2019-01-12T17:22:35.149Z,3.44
2019-01-12T17:23:35.222Z,3.46
2019-01-12T17:25:28.466Z,3.44
2019-01-12T17:26:30.635Z,3.44
2019-01-12T17:28:21.239Z,3.58
2019-01-12T17:29:22.959Z,3.49
2019-01-12T17:31:16.317Z,3.54
2019-01-12T17:32:17.135Z,3.52
2019-01-12T17:34:18.928Z,3.57
2019-01-12T17:35:10.875Z,3.52
2019-01-12T17:37:26.581Z,3.60
2019-01-12T17:38:26.106Z,3.57
2019-01-12T17:48:41.683Z,3.42
2019-01-12T17:59:02.297Z,3.33
2019-01-12T18:03:10.236Z,3.34
2019-01-12T18:03:56.141Z,3.28
2019-01-12T18:04:56.578Z,3.30
2019-01-12T18:11:16.427Z,3.30
2019-01-12T18:12:12.291Z,3.39
2019-01-12T18:14:09.739Z,3.30
2019-01-12T18:15:06.507Z,3.28
2019-01-12T18:17:05.163Z,3.36
2019-01-12T18:18:08.660Z,3.24
2019-01-12T18:19:57.467Z,3.33
2019-01-12T18:20:56.937Z,3.31
2019-01-12T18:22:51.367Z,3.40
2019-01-12T21:17:29.860Z,3.88
2019-01-12T21:20:33.542Z,3.78
2019-01-12T21:21:34.333Z,3.83
2019-01-12T21:23:26.875Z,3.82
2019-01-12T21:24:26.815Z,3.75
2019-01-12T21:25:26.734Z,3.82
2019-01-12T21:26:26.545Z,3.83
2019-01-12T21:27:26.587Z,3.79
2019-01-12T21:28:26.524Z,3.80
2019-01-12T21:29:26.361Z,3.72
2019-01-12T21:30:26.316Z,3.78
2019-01-12T21:31:26.287Z,3.76
2019-01-12T21:32:26.280Z,3.72
2019-01-12T21:33:26.271Z,3.72
2019-01-12T21:34:26.260Z,3.75
2019-01-12T21:35:26.250Z,3.72
2019-01-12T21:36:26.240Z,3.72
2019-01-12T21:37:26.241Z,3.76
2019-01-12T21:38:26.227Z,3.78
2019-01-12T21:39:26.214Z,3.72
2019-01-12T21:40:26.230Z,3.78
2019-01-12T21:41:26.196Z,3.76
2019-01-12T21:42:26.189Z,3.78
2019-01-12T21:43:26.190Z,3.78
2019-01-12T21:44:26.169Z,3.72
2019-01-12T21:45:26.163Z,3.86
2019-01-12T21:46:26.171Z,3.83
2019-01-12T21:47:26.148Z,3.92
2019-01-12T21:48:26.138Z,3.83
2019-01-12T21:49:26.127Z,3.88
2019-01-12T21:50:26.123Z,3.83
2019-01-12T21:51:26.110Z,3.78
2019-01-12T21:52:26.102Z,3.79
2019-01-12T21:53:26.096Z,3.86
2019-01-12T21:54:26.088Z,3.78
2019-01-12T21:55:26.087Z,3.83
2019-01-12T21:56:26.074Z,3.78
2019-01-12T21:57:26.061Z,3.80
2019-01-12T21:59:19.027Z,3.79
2019-01-12T22:00:18.934Z,3.85
2019-01-12T22:02:11.952Z,3.88
2019-01-12T22:03:11.887Z,3.71
2019-01-12T22:05:05.261Z,3.86
2019-01-12T22:06:05.216Z,3.85
2019-01-12T22:07:58.708Z,3.90
2019-01-12T22:08:58.585Z,3.90
2019-01-12T22:10:51.931Z,3.82
2019-01-12T22:11:51.420Z,3.85
2019-01-12T22:13:44.871Z,3.78
2019-01-12T22:14:52.119Z,3.86
2019-01-12T22:16:37.710Z,3.97
2019-01-12T22:17:37.661Z,3.89
2019-01-12T22:19:31.366Z,3.90
2019-01-12T22:20:31.273Z,3.79
2019-01-12T22:22:24.240Z,3.82
2019-01-12T22:23:24.094Z,3.82
2019-01-12T22:25:17.566Z,3.97
2019-01-12T22:26:17.662Z,3.92
2019-01-12T22:28:10.481Z,3.98
2019-01-12T22:29:10.339Z,3.98
2019-01-12T22:30:10.307Z,3.97
2019-01-12T22:31:10.358Z,4.01
2019-01-12T22:32:10.287Z,3.97
2019-01-12T22:33:10.275Z,3.96
2019-01-12T22:34:10.274Z,4.01
2019-01-12T22:35:10.285Z,4.10
2019-01-12T22:36:10.251Z,3.98
2019-01-12T22:37:10.247Z,4.01
2019-01-12T22:38:10.236Z,4.00
2019-01-12T22:39:10.226Z,4.07
2019-01-12T22:40:10.260Z,3.98
2019-01-12T22:41:10.210Z,4.01
2019-01-12T22:42:10.206Z,3.98
2019-01-12T22:43:10.196Z,3.98
2019-01-12T22:44:10.193Z,3.98
2019-01-12T22:45:10.181Z,3.98
2019-01-12T22:46:10.173Z,4.03
2019-01-12T22:47:10.186Z,3.97
2019-01-12T22:48:10.204Z,3.94
2019-01-12T22:49:10.176Z,3.88
2019-01-12T22:50:10.144Z,3.94
2019-01-12T22:51:10.135Z,3.86
2019-01-12T22:52:10.147Z,3.92
2019-01-12T22:53:10.226Z,3.86
2019-01-12T22:54:10.112Z,3.83
2019-01-12T22:55:11.883Z,3.88
2019-01-12T22:56:10.095Z,4.00
2019-01-12T22:57:10.092Z,3.86
2019-01-12T22:58:10.079Z,3.85
2019-01-12T22:59:10.073Z,3.79
2019-01-12T23:00:10.069Z,3.82
2019-01-12T23:01:10.694Z,3.83
2019-01-12T23:02:10.050Z,3.89
2019-01-12T23:03:10.041Z,3.92
2019-01-12T23:04:10.036Z,3.90
2019-01-12T23:05:10.025Z,3.97
2019-01-12T23:06:10.019Z,3.90
2019-01-12T23:07:11.621Z,3.89
2019-01-12T23:08:10.005Z,3.85
2019-01-12T23:09:11.120Z,3.85
2019-01-12T23:10:09.988Z,3.82
2019-01-12T23:11:09.999Z,3.85
2019-01-12T23:12:09.970Z,3.88
2019-01-12T23:13:09.965Z,3.97
2019-01-12T23:14:09.958Z,3.86
2019-01-12T23:15:09.951Z,3.90
2019-01-12T23:16:09.940Z,3.94
2019-01-12T23:17:09.938Z,3.89
2019-01-12T23:18:09.930Z,3.90
2019-01-12T23:19:09.954Z,3.96
2019-01-12T23:20:09.910Z,3.96
2019-01-12T23:21:09.905Z,3.89
2019-01-12T23:22:09.903Z,3.96
2019-01-12T23:23:09.887Z,3.86
2019-01-12T23:24:09.881Z,3.96
2019-01-12T23:25:09.871Z,3.92
2019-01-12T23:26:09.864Z,3.90
2019-01-12T23:27:09.855Z,3.98
2019-01-12T23:28:09.853Z,3.94
2019-01-12T23:29:09.841Z,3.89
2019-01-12T23:30:09.838Z,3.89
2019-01-12T23:31:09.824Z,3.92
2019-01-12T23:32:09.820Z,3.89
2019-01-12T23:33:09.808Z,4.01
2019-01-12T23:34:09.802Z,4.01
2019-01-12T23:35:09.794Z,4.03
2019-01-12T23:36:09.786Z,4.06
2019-01-12T23:37:09.782Z,4.14
2019-01-12T23:38:09.769Z,4.14
2019-01-12T23:39:09.761Z,4.12
2019-01-12T23:40:09.754Z,4.06
2019-01-12T23:41:09.748Z,4.18
2019-01-12T23:42:09.738Z,4.15
2019-01-12T23:43:09.729Z,4.15
2019-01-12T23:44:14.842Z,4.06
2019-01-12T23:45:09.714Z,4.08
2019-01-12T23:46:09.707Z,4.04
2019-01-12T23:47:09.699Z,3.98
2019-01-12T23:48:09.703Z,3.97
2019-01-12T23:49:09.683Z,3.97
2019-01-12T23:50:09.677Z,4.03
2019-01-12T23:51:09.669Z,3.94
2019-01-12T23:52:09.663Z,3.94
2019-01-12T23:53:09.654Z,3.90
2019-01-12T23:54:09.647Z,3.90
2019-01-12T23:55:09.638Z,3.89
2019-01-12T23:56:09.628Z,3.96
2019-01-12T23:57:09.628Z,3.96
2019-01-12T23:58:09.617Z,3.97
2019-01-12T23:59:09.608Z,3.96
